Wrightsville, Ohio
Current Conditions -  °F | °C
As of 2:55 AM on Friday 24 Oct 2014 (Local Time) from KFGX Reporting Station
Clear Clear  
Wind Chill: 43°   Ceiling: Unl
Heat Index: 43°   Visibility: 10mi
Dew Point: 41°   Wind: 0mph
Humidity: 92%   Direction: NA
Pressure: 30.13"   Gusts: NA
Location:  38.7042°N, 83.6081°W
Report Text: KFGX 240655Z AUTO 00000KT 10SM CLR 06/05 A3013 RMK AO2 T00630051
Loading
Personal Weather Stations






























Interactive Weather Map
Tropical Storm Tracking
New forecast layout! Learn more

10-Day Weather Forecast

Advertisements
Track Severe Weather on mobile